createdAt,value
2023-09-09T00:00:53.292Z,9.07
2023-09-09T00:03:21.467Z,9.18
2023-09-09T00:05:48.636Z,9.55
2023-09-09T00:08:17.285Z,8.57
2023-09-09T00:10:43.911Z,8.43
2023-09-09T00:13:10.756Z,7.97
2023-09-09T00:15:37.694Z,7.32
2023-09-09T00:18:04.980Z,7.95
2023-09-09T00:20:36.947Z,7.32
2023-09-09T00:23:08.567Z,7.68
2023-09-09T00:25:39.115Z,7.28
2023-09-09T00:30:33.063Z,7.45
2023-09-09T00:33:00.125Z,7.00
2023-09-09T00:35:27.910Z,6.90
2023-09-09T00:37:55.564Z,7.63
2023-09-09T00:40:22.399Z,7.38
2023-09-09T00:42:49.360Z,6.63
2023-09-09T00:45:16.372Z,7.20
2023-09-09T00:47:43.268Z,7.07
2023-09-09T00:50:13.204Z,6.85
2023-09-09T00:52:40.792Z,6.60
2023-09-09T00:55:08.674Z,6.72
2023-09-09T00:57:35.574Z,7.30
2023-09-09T01:00:05.023Z,7.25
2023-09-09T01:02:32.752Z,6.88
2023-09-09T01:05:01.255Z,7.35
2023-09-09T01:07:28.841Z,7.05
2023-09-09T01:09:55.444Z,7.55
2023-09-09T01:12:25.653Z,6.95
2023-09-09T01:14:52.609Z,6.75
2023-09-09T01:17:19.627Z,7.22
2023-09-09T01:19:47.311Z,7.30
2023-09-09T01:22:20.005Z,7.38
2023-09-09T01:24:46.901Z,7.10
2023-09-09T01:27:15.869Z,7.72
2023-09-09T01:29:42.468Z,6.90
2023-09-09T01:32:09.165Z,7.43
2023-09-09T01:34:35.849Z,6.43
2023-09-09T01:37:02.504Z,7.35
2023-09-09T01:39:29.253Z,7.18
2023-09-09T01:41:55.839Z,6.68
2023-09-09T01:44:22.461Z,6.50
2023-09-09T01:46:49.187Z,7.05
2023-09-09T01:49:15.935Z,8.00
2023-09-09T01:51:42.527Z,6.90
2023-09-09T01:54:09.228Z,6.78
2023-09-09T01:56:35.868Z,7.28
2023-09-09T01:59:02.665Z,6.90
2023-09-09T02:01:29.885Z,7.07
2023-09-09T02:03:56.768Z,6.93
2023-09-09T02:06:23.729Z,7.25
2023-09-09T02:08:50.469Z,7.70
2023-09-09T02:11:17.104Z,7.63
2023-09-09T02:13:43.712Z,7.18
2023-09-09T02:16:10.539Z,7.35
2023-09-09T02:18:41.169Z,7.25
2023-09-09T02:21:08.373Z,6.75
2023-09-09T02:23:35.368Z,7.30
2023-09-09T02:26:02.413Z,6.95
2023-09-09T02:28:29.109Z,7.90
2023-09-09T02:30:56.119Z,7.88
2023-09-09T02:33:22.973Z,7.20
2023-09-09T02:35:49.632Z,9.23
2023-09-09T02:38:16.289Z,10.30
2023-09-09T02:40:42.916Z,10.05
2023-09-09T02:43:09.843Z,10.38
2023-09-09T02:45:36.583Z,10.13
2023-09-09T02:48:03.616Z,10.07
2023-09-09T02:50:30.212Z,10.32
2023-09-09T02:52:57.065Z,10.20
2023-09-09T02:55:23.870Z,11.90
2023-09-09T02:57:50.568Z,10.85
2023-09-09T03:00:18.024Z,11.32
2023-09-09T03:02:44.860Z,11.45
2023-09-09T03:05:12.163Z,11.05
2023-09-09T03:07:39.580Z,10.85
2023-09-09T03:10:06.863Z,11.07
2023-09-09T03:12:33.903Z,11.40
2023-09-09T03:15:00.783Z,12.30
2023-09-09T03:17:30.087Z,12.25
2023-09-09T03:19:56.683Z,12.05
2023-09-09T03:22:23.380Z,11.77
2023-09-09T03:24:50.163Z,11.93
2023-09-09T03:27:16.797Z,11.50
2023-09-09T03:29:43.627Z,12.07
2023-09-09T03:32:10.235Z,11.68
2023-09-09T03:34:36.893Z,11.10
2023-09-09T03:37:03.669Z,11.63
2023-09-09T03:39:30.412Z,12.30
2023-09-09T03:41:56.992Z,12.05
2023-09-09T03:44:23.685Z,11.63
2023-09-09T03:46:50.308Z,11.68
2023-09-09T03:49:17.009Z,11.65
2023-09-09T03:51:45.846Z,12.43
2023-09-09T03:54:12.470Z,11.57
2023-09-09T03:56:39.041Z,12.32
2023-09-09T03:59:05.805Z,11.75
2023-09-09T04:01:32.801Z,12.30
2023-09-09T04:03:59.667Z,12.73
2023-09-09T04:06:28.175Z,12.05
2023-09-09T04:08:57.639Z,13.50
2023-09-09T04:11:24.858Z,14.80
2023-09-09T04:13:51.667Z,15.60
2023-09-09T04:16:18.413Z,15.38
2023-09-09T04:18:46.726Z,14.85
2023-09-09T04:21:14.349Z,14.68
2023-09-09T04:23:41.244Z,14.00
2023-09-09T04:26:08.417Z,14.50
2023-09-09T04:28:35.234Z,13.65
2023-09-09T04:31:02.060Z,13.95
2023-09-09T04:33:28.806Z,13.30
2023-09-09T04:35:55.603Z,13.30
2023-09-09T04:38:24.314Z,13.02
2023-09-09T04:40:51.072Z,13.60
2023-09-09T04:43:19.225Z,12.95
2023-09-09T04:45:46.095Z,12.65
2023-09-09T04:48:13.235Z,12.98
2023-09-09T04:50:39.990Z,12.93
2023-09-09T04:53:06.853Z,14.25
2023-09-09T04:55:33.778Z,13.48
2023-09-09T04:58:00.618Z,14.02
2023-09-09T05:00:27.328Z,14.45
2023-09-09T05:02:54.024Z,15.52
2023-09-09T05:05:20.847Z,15.85
2023-09-09T05:07:47.531Z,16.63
2023-09-09T05:10:15.007Z,16.85
2023-09-09T05:12:44.344Z,16.77
2023-09-09T05:15:14.557Z,16.77
2023-09-09T05:17:41.659Z,15.32
2023-09-09T05:20:08.981Z,15.52
2023-09-09T05:22:35.664Z,15.27
2023-09-09T05:25:02.326Z,16.23
2023-09-09T05:27:29.056Z,16.38
2023-09-09T05:29:55.666Z,16.80
2023-09-09T05:32:23.294Z,16.52
2023-09-09T05:34:50.043Z,16.55
2023-09-09T05:37:17.365Z,17.05
2023-09-09T05:39:44.137Z,16.70
2023-09-09T05:42:10.802Z,16.95
2023-09-09T05:44:37.956Z,16.20
2023-09-09T05:47:08.247Z,16.10
2023-09-09T05:49:39.608Z,15.85
2023-09-09T05:52:07.987Z,16.30
2023-09-09T05:54:34.721Z,16.33
2023-09-09T05:57:01.726Z,15.77
2023-09-09T05:59:28.533Z,15.63
2023-09-09T06:01:55.433Z,16.38
2023-09-09T06:04:22.363Z,15.38
2023-09-09T06:06:49.627Z,16.77
2023-09-09T06:09:16.563Z,17.10
2023-09-09T06:11:43.406Z,15.48
2023-09-09T06:14:10.172Z,16.90
2023-09-09T06:16:36.824Z,18.25
2023-09-09T06:19:03.564Z,18.50
2023-09-09T06:21:31.411Z,18.17
2023-09-09T06:23:58.016Z,17.73
2023-09-09T06:26:24.772Z,17.85
2023-09-09T06:28:51.917Z,19.00
2023-09-09T06:31:18.711Z,18.55
2023-09-09T06:33:45.727Z,17.75
2023-09-09T06:36:12.754Z,17.70
2023-09-09T06:38:39.663Z,17.33
2023-09-09T06:41:06.460Z,18.10
2023-09-09T06:43:33.146Z,18.20
2023-09-09T06:46:01.642Z,17.77
2023-09-09T06:48:30.373Z,17.88
2023-09-09T06:50:57.550Z,18.35
2023-09-09T06:53:25.787Z,17.60
2023-09-09T06:55:53.339Z,18.52
2023-09-09T06:58:20.123Z,17.65
2023-09-09T07:00:53.434Z,18.75
2023-09-09T07:03:21.111Z,17.42
2023-09-09T07:05:48.320Z,17.25
2023-09-09T07:08:15.033Z,15.45
2023-09-09T07:10:54.297Z,15.20
2023-09-09T07:13:24.433Z,14.93
2023-09-09T07:15:54.917Z,15.40
2023-09-09T07:18:22.312Z,15.18
2023-09-09T07:20:50.136Z,14.57
2023-09-09T07:23:18.716Z,15.32
2023-09-09T07:25:46.130Z,16.10
2023-09-09T07:28:12.975Z,16.75
2023-09-09T07:30:40.026Z,16.60
2023-09-09T07:33:06.800Z,15.80
2023-09-09T07:35:36.467Z,17.42
2023-09-09T07:38:07.404Z,18.13
2023-09-09T07:40:34.297Z,17.25
2023-09-09T07:43:01.367Z,17.92
2023-09-09T07:45:28.694Z,18.77
2023-09-09T07:47:55.645Z,19.50
2023-09-09T07:50:22.470Z,18.85
2023-09-09T07:52:49.220Z,19.25
2023-09-09T07:55:15.997Z,20.38
2023-09-09T07:57:42.600Z,19.83
2023-09-09T08:00:09.687Z,21.00
2023-09-09T08:02:39.554Z,20.33
2023-09-09T08:05:07.885Z,21.05
2023-09-09T08:07:35.230Z,21.13
2023-09-09T08:10:02.038Z,22.05
2023-09-09T08:12:28.813Z,20.13
2023-09-09T08:15:12.514Z,21.83
2023-09-09T08:17:39.696Z,21.65
2023-09-09T08:20:09.037Z,21.52
2023-09-09T08:22:36.260Z,20.97
2023-09-09T08:25:03.660Z,21.48
2023-09-09T08:27:30.446Z,21.75
2023-09-09T08:29:58.137Z,21.42
2023-09-09T08:32:25.000Z,22.67
2023-09-09T08:34:53.353Z,22.95
2023-09-09T08:37:20.162Z,21.70
2023-09-09T08:39:46.863Z,22.65
2023-09-09T08:42:40.804Z,20.52
2023-09-09T08:45:30.361Z,20.75
2023-09-09T08:47:57.370Z,21.27
2023-09-09T08:50:26.233Z,22.35
2023-09-09T08:52:57.267Z,22.10
2023-09-09T08:55:24.014Z,20.98
2023-09-09T08:57:51.316Z,21.70
2023-09-09T09:00:19.025Z,21.33
2023-09-09T09:02:48.954Z,20.80
2023-09-09T09:05:18.042Z,20.70
2023-09-09T09:07:44.862Z,20.77
2023-09-09T09:10:11.756Z,20.92
2023-09-09T09:12:41.614Z,21.83
2023-09-09T09:15:11.791Z,20.67
2023-09-09T09:17:42.186Z,19.67
2023-09-09T09:20:26.545Z,21.10
2023-09-09T09:22:57.276Z,18.52
2023-09-09T09:25:24.500Z,19.33
2023-09-09T09:27:51.355Z,20.65
2023-09-09T09:30:26.110Z,20.00
2023-09-09T09:32:55.636Z,20.40
2023-09-09T09:35:29.604Z,21.08
2023-09-09T09:38:04.704Z,19.90
2023-09-09T09:40:31.818Z,20.38
2023-09-09T09:42:58.793Z,20.50
2023-09-09T09:45:30.580Z,20.40
2023-09-09T09:47:59.353Z,21.20
2023-09-09T09:50:32.085Z,16.88
2023-09-09T09:53:01.733Z,17.35
2023-09-09T09:55:30.074Z,18.17
2023-09-09T09:58:05.943Z,16.75
2023-09-09T10:00:33.515Z,16.52
2023-09-09T10:03:02.769Z,16.98
2023-09-09T10:05:30.892Z,16.95
2023-09-09T10:08:07.423Z,17.98
2023-09-09T10:10:36.916Z,17.17
2023-09-09T10:13:28.206Z,17.20
2023-09-09T10:15:56.825Z,15.55
2023-09-09T10:18:26.419Z,14.63
2023-09-09T10:20:53.907Z,13.37
2023-09-09T10:23:23.084Z,14.38
2023-09-09T10:25:54.357Z,13.55
2023-09-09T10:28:22.330Z,12.50
2023-09-09T10:30:54.453Z,12.30
2023-09-09T10:33:22.040Z,12.75
2023-09-09T10:35:51.735Z,13.18
2023-09-09T10:38:19.452Z,12.38
2023-09-09T10:40:51.006Z,13.80
2023-09-09T10:43:17.922Z,13.27
2023-09-09T10:45:45.223Z,12.30
2023-09-09T10:48:12.754Z,13.13
2023-09-09T10:50:45.844Z,13.80
2023-09-09T10:53:27.977Z,14.23
2023-09-09T10:55:56.644Z,14.55
2023-09-09T10:58:35.760Z,15.10
2023-09-09T11:01:03.311Z,15.38
2023-09-09T11:03:56.349Z,14.30
2023-09-09T11:06:31.859Z,15.27
2023-09-09T11:09:01.455Z,17.13
2023-09-09T11:11:34.669Z,14.87
2023-09-09T11:14:08.709Z,15.48
2023-09-09T11:16:43.369Z,16.80
2023-09-09T11:19:15.465Z,15.13
2023-09-09T11:21:46.568Z,16.63
2023-09-09T11:24:14.058Z,16.30
2023-09-09T11:26:45.758Z,15.25
2023-09-09T11:29:25.774Z,15.60
2023-09-09T11:31:59.982Z,14.63
2023-09-09T11:34:31.436Z,14.88
2023-09-09T11:36:58.125Z,15.48
2023-09-09T11:39:24.825Z,14.38
2023-09-09T11:41:51.494Z,15.07
2023-09-09T11:44:18.184Z,16.00
2023-09-09T11:46:47.656Z,14.27
2023-09-09T11:49:17.324Z,13.93
2023-09-09T11:51:44.820Z,13.38
2023-09-09T11:54:12.973Z,13.70
2023-09-09T11:56:39.609Z,12.25
2023-09-09T11:59:11.096Z,11.95
2023-09-09T12:01:45.256Z,10.25
2023-09-09T12:04:13.753Z,10.57
2023-09-09T12:06:46.597Z,8.90
2023-09-09T12:09:14.976Z,9.55
2023-09-09T12:11:43.073Z,9.25
2023-09-09T12:14:11.990Z,9.43
2023-09-09T12:16:40.109Z,8.10
2023-09-09T12:19:07.078Z,8.13
2023-09-09T12:21:44.573Z,9.43
2023-09-09T12:24:11.342Z,7.10
2023-09-09T12:26:38.059Z,7.47
2023-09-09T12:29:09.123Z,7.85
2023-09-09T12:31:59.718Z,7.55
2023-09-09T12:34:27.941Z,7.30
2023-09-09T12:36:59.541Z,9.07
2023-09-09T12:39:28.051Z,7.65
2023-09-09T12:42:08.675Z,8.13
2023-09-09T12:44:52.208Z,8.80
2023-09-09T12:47:22.875Z,8.02
2023-09-09T12:49:51.380Z,7.35
2023-09-09T12:52:18.215Z,7.50
2023-09-09T12:54:47.317Z,6.75
2023-09-09T12:57:14.104Z,6.88
2023-09-09T12:59:40.928Z,6.80
2023-09-09T13:02:07.740Z,7.07
2023-09-09T13:04:34.444Z,6.82
2023-09-09T13:07:03.477Z,6.43
2023-09-09T13:09:30.347Z,6.88
2023-09-09T13:11:57.001Z,7.10
2023-09-09T13:14:26.919Z,7.65
2023-09-09T13:16:55.614Z,8.38
2023-09-09T13:19:23.379Z,8.30
2023-09-09T13:21:51.357Z,7.38
2023-09-09T13:24:18.168Z,7.85
2023-09-09T13:26:44.807Z,7.57
2023-09-09T13:29:11.464Z,8.05
2023-09-09T13:31:38.591Z,7.78
2023-09-09T13:34:05.327Z,7.65
2023-09-09T13:36:31.957Z,7.63
2023-09-09T13:38:58.599Z,7.75
2023-09-09T13:41:29.698Z,7.35
2023-09-09T13:43:56.679Z,8.18
2023-09-09T13:46:23.625Z,7.38
2023-09-09T13:48:50.278Z,7.22
2023-09-09T13:51:16.950Z,7.78
2023-09-09T13:53:43.813Z,7.68
2023-09-09T13:56:10.525Z,7.63
2023-09-09T13:58:37.174Z,7.30
2023-09-09T14:01:04.132Z,6.70
2023-09-09T14:03:31.057Z,6.53
2023-09-09T14:05:59.150Z,6.82
2023-09-09T14:08:26.399Z,6.93
2023-09-09T14:10:53.210Z,7.25
2023-09-09T14:13:19.789Z,6.97
2023-09-09T14:15:47.207Z,7.40
2023-09-09T14:18:14.916Z,7.25
2023-09-09T14:20:44.251Z,7.05
2023-09-09T14:23:11.393Z,7.47
2023-09-09T14:25:38.472Z,8.00
2023-09-09T14:28:05.925Z,7.50
2023-09-09T14:30:33.051Z,6.53
2023-09-09T14:32:59.851Z,6.80
2023-09-09T14:35:26.605Z,6.40
2023-09-09T14:37:53.270Z,6.15
2023-09-09T14:40:19.941Z,6.10
2023-09-09T14:42:46.543Z,5.82
2023-09-09T14:45:13.252Z,5.50
2023-09-09T14:47:39.949Z,5.45
2023-09-09T14:50:07.612Z,5.30
2023-09-09T14:52:34.365Z,5.82
2023-09-09T14:55:01.057Z,5.40
2023-09-09T14:57:27.966Z,5.43
2023-09-09T14:59:54.876Z,7.03
2023-09-09T15:02:21.580Z,5.72
2023-09-09T15:04:48.297Z,5.97
2023-09-09T15:07:15.844Z,5.93
2023-09-09T15:09:43.018Z,6.68
2023-09-09T15:12:10.573Z,6.30
2023-09-09T15:14:37.842Z,5.57
2023-09-09T15:17:05.316Z,5.90
2023-09-09T15:19:32.755Z,5.75
2023-09-09T15:21:59.472Z,5.65
2023-09-09T15:24:26.184Z,5.78
2023-09-09T15:26:52.909Z,5.65
2023-09-09T15:29:19.669Z,5.75
2023-09-09T15:31:46.429Z,4.50
2023-09-09T15:34:13.934Z,5.60
2023-09-09T15:36:40.740Z,5.00
2023-09-09T15:39:11.183Z,5.20
2023-09-09T15:41:47.117Z,5.03
2023-09-09T15:44:13.869Z,4.70
2023-09-09T15:46:40.652Z,5.03
2023-09-09T15:49:07.597Z,5.18
2023-09-09T15:51:34.334Z,4.90
2023-09-09T15:54:02.377Z,4.75
2023-09-09T15:56:29.260Z,4.85
2023-09-09T15:58:56.032Z,4.60
2023-09-09T16:01:22.881Z,4.70
2023-09-09T16:03:49.690Z,4.75
2023-09-09T16:06:16.466Z,5.00
2023-09-09T16:08:43.279Z,7.65
2023-09-09T16:11:10.128Z,9.98
2023-09-09T16:13:37.655Z,6.63
2023-09-09T16:16:09.577Z,6.13
2023-09-09T16:18:41.537Z,6.13
2023-09-09T16:21:08.658Z,6.00
2023-09-09T16:23:35.934Z,5.50
2023-09-09T16:26:03.314Z,5.50
2023-09-09T16:28:30.357Z,5.03
2023-09-09T16:30:57.239Z,4.68
2023-09-09T16:33:24.229Z,4.90
2023-09-09T16:35:51.039Z,5.40
2023-09-09T16:38:18.095Z,4.45
2023-09-09T16:40:46.091Z,4.55
2023-09-09T16:43:12.744Z,4.55
2023-09-09T16:45:40.917Z,4.95
2023-09-09T16:48:11.315Z,4.55
2023-09-09T16:53:05.652Z,4.45
2023-09-09T16:55:32.499Z,4.82
2023-09-09T16:57:59.196Z,4.60
2023-09-09T17:00:25.865Z,6.03
2023-09-09T17:02:52.636Z,4.45
2023-09-09T17:05:19.406Z,4.72
2023-09-09T17:07:46.152Z,4.63
2023-09-09T17:10:12.966Z,4.82
2023-09-09T17:12:39.630Z,5.18
2023-09-09T17:15:07.120Z,4.60
2023-09-09T17:17:33.857Z,4.57
2023-09-09T17:20:00.707Z,4.30
2023-09-09T17:22:27.491Z,4.55
2023-09-09T17:24:54.614Z,5.15
2023-09-09T17:27:21.308Z,4.80
2023-09-09T17:29:48.192Z,4.97
2023-09-09T17:32:15.086Z,4.32
2023-09-09T17:34:43.020Z,4.68
2023-09-09T17:37:10.676Z,4.40
2023-09-09T17:39:37.549Z,4.60
2023-09-09T17:42:04.511Z,4.57
2023-09-09T17:44:31.487Z,4.88
2023-09-09T17:46:58.828Z,4.80
2023-09-09T17:49:26.964Z,5.20
2023-09-09T17:51:55.457Z,4.60
2023-09-09T17:54:26.452Z,5.07
2023-09-09T17:56:55.464Z,4.72
2023-09-09T17:59:22.641Z,4.53
2023-09-09T18:01:50.036Z,4.70
2023-09-09T18:04:17.422Z,4.80
2023-09-09T18:06:44.249Z,5.03
2023-09-09T18:09:11.173Z,4.80
2023-09-09T18:11:37.941Z,5.03
2023-09-09T18:14:04.580Z,5.50
2023-09-09T18:16:32.780Z,5.05
2023-09-09T18:19:00.062Z,5.32
2023-09-09T18:21:26.958Z,5.43
2023-09-09T18:23:54.006Z,5.30
2023-09-09T18:26:21.186Z,5.15
2023-09-09T18:28:48.623Z,5.72
2023-09-09T18:31:15.586Z,5.20
2023-09-09T18:33:42.529Z,5.72
2023-09-09T18:36:09.191Z,5.63
2023-09-09T18:38:35.932Z,5.28
2023-09-09T18:41:04.038Z,5.50
2023-09-09T18:43:31.116Z,5.57
2023-09-09T18:45:59.521Z,6.30
2023-09-09T18:48:26.865Z,6.60
2023-09-09T18:50:53.474Z,5.93
2023-09-09T18:53:21.064Z,6.18
2023-09-09T18:55:48.111Z,7.10
2023-09-09T18:58:14.889Z,6.32
2023-09-09T19:00:41.772Z,6.38
2023-09-09T19:03:08.759Z,7.97
2023-09-09T19:05:36.059Z,6.38
2023-09-09T19:08:03.028Z,6.70
2023-09-09T19:10:29.780Z,7.65
2023-09-09T19:12:56.402Z,8.75
2023-09-09T19:15:24.399Z,9.13
2023-09-09T19:17:51.596Z,9.75
2023-09-09T19:20:18.459Z,10.80
2023-09-09T19:22:47.606Z,11.20
2023-09-09T19:25:14.446Z,11.07
2023-09-09T19:27:41.225Z,10.40
2023-09-09T19:30:09.239Z,10.82
2023-09-09T19:32:36.143Z,11.27
2023-09-09T19:35:02.993Z,11.05
2023-09-09T19:37:29.850Z,11.55
2023-09-09T19:40:00.502Z,11.93
2023-09-09T19:42:27.884Z,12.02
2023-09-09T19:44:58.563Z,12.90
2023-09-09T19:47:26.544Z,12.30
2023-09-09T19:49:54.212Z,12.88
2023-09-09T19:52:22.048Z,12.73
2023-09-09T19:54:48.887Z,13.77
2023-09-09T19:57:15.532Z,13.60
2023-09-09T19:59:42.293Z,13.43
2023-09-09T20:02:09.052Z,14.38
2023-09-09T20:04:35.876Z,13.45
2023-09-09T20:07:03.671Z,13.10
2023-09-09T20:09:30.624Z,14.25
2023-09-09T20:11:57.392Z,15.23
2023-09-09T20:14:25.338Z,15.18
2023-09-09T20:16:52.082Z,14.85
2023-09-09T20:19:19.467Z,14.75
2023-09-09T20:21:46.192Z,14.88
2023-09-09T20:24:12.939Z,15.13
2023-09-09T20:26:39.658Z,14.88
2023-09-09T20:29:07.185Z,15.73
2023-09-09T20:31:34.198Z,14.77
2023-09-09T20:34:00.908Z,14.10
2023-09-09T20:36:27.733Z,13.65
2023-09-09T20:38:56.315Z,14.82
2023-09-09T20:41:22.938Z,14.45
2023-09-09T20:43:49.856Z,14.73
2023-09-09T20:46:18.830Z,14.40
2023-09-09T20:48:45.645Z,15.60
2023-09-09T20:51:12.411Z,14.13
2023-09-09T20:53:39.202Z,15.18
2023-09-09T20:56:10.173Z,15.07
2023-09-09T20:58:37.803Z,14.85
2023-09-09T21:01:04.807Z,16.08
2023-09-09T21:03:31.733Z,19.10
2023-09-09T21:05:58.810Z,20.02
2023-09-09T21:08:25.527Z,19.20
2023-09-09T21:10:53.109Z,17.70
2023-09-09T21:13:24.349Z,15.82
2023-09-09T21:15:51.456Z,16.90
2023-09-09T21:18:18.537Z,17.45
2023-09-09T21:20:45.664Z,16.75
2023-09-09T21:23:12.700Z,17.98
2023-09-09T21:25:40.972Z,18.17
2023-09-09T21:28:08.144Z,19.70
2023-09-09T21:30:35.076Z,19.75
2023-09-09T21:33:02.293Z,18.55
2023-09-09T21:35:29.507Z,21.17
2023-09-09T21:37:56.568Z,19.90
2023-09-09T21:40:23.566Z,20.42
2023-09-09T21:42:50.313Z,19.58
2023-09-09T21:45:17.099Z,19.77
2023-09-09T21:47:43.904Z,19.20
2023-09-09T21:50:10.956Z,19.08
2023-09-09T21:52:37.847Z,18.60
2023-09-09T21:55:04.890Z,19.65
2023-09-09T21:57:34.619Z,17.77
2023-09-09T22:00:01.689Z,18.67
2023-09-09T22:02:28.819Z,19.25
2023-09-09T22:04:55.697Z,18.30
2023-09-09T22:07:22.534Z,20.52
2023-09-09T22:09:49.263Z,19.70
2023-09-09T22:12:15.956Z,19.55
2023-09-09T22:14:42.603Z,21.33
2023-09-09T22:17:09.514Z,21.05
2023-09-09T22:19:36.289Z,21.75
2023-09-09T22:22:02.930Z,21.05
2023-09-09T22:24:29.615Z,23.00
2023-09-09T22:27:00.506Z,20.27
2023-09-09T22:29:28.022Z,21.67
2023-09-09T22:31:55.470Z,22.02
2023-09-09T22:34:22.529Z,21.70
2023-09-09T22:36:49.430Z,21.52
2023-09-09T22:39:16.070Z,20.75
2023-09-09T22:41:42.938Z,20.52
2023-09-09T22:44:10.432Z,19.15
2023-09-09T22:46:37.283Z,19.20
2023-09-09T22:49:04.184Z,20.23
2023-09-09T22:51:31.041Z,19.33
2023-09-09T22:53:57.972Z,20.00
2023-09-09T22:56:24.716Z,20.73
2023-09-09T22:58:51.607Z,20.10
2023-09-09T23:01:18.578Z,21.10
2023-09-09T23:03:45.417Z,20.70
2023-09-09T23:06:12.351Z,20.02
2023-09-09T23:08:39.283Z,21.77
2023-09-09T23:11:11.157Z,20.70
2023-09-09T23:13:38.697Z,20.67
2023-09-09T23:16:05.404Z,22.63
2023-09-09T23:18:32.150Z,22.80
2023-09-09T23:21:01.017Z,21.98
2023-09-09T23:23:27.696Z,22.60
2023-09-09T23:25:55.449Z,21.92
2023-09-09T23:28:22.472Z,23.00
2023-09-09T23:30:58.528Z,22.00
2023-09-09T23:33:25.250Z,23.02
2023-09-09T23:35:51.925Z,23.15
2023-09-09T23:38:18.766Z,21.83
2023-09-09T23:40:45.904Z,21.90
2023-09-09T23:43:12.586Z,23.58
2023-09-09T23:45:39.261Z,22.00
2023-09-09T23:48:06.319Z,21.58
2023-09-09T23:50:33.120Z,23.00
2023-09-09T23:53:03.369Z,23.33
2023-09-09T23:55:30.962Z,24.25
2023-09-09T23:57:57.749Z,24.30
